Time;durP1;ratioP1;P1;durP2;ratioP2;P2;SDS_P1;SDS_P2;PMS_P1;PMS_P2;Temp;Humidity;BMP_temperature;BMP_pressure;BME280_temperature;BME280_humidity;BME280_pressure;Samples;Min_cycle;Max_cycle;Signal;HPM_P1;HPM_P2
2023/03/18 00:02:46;;;;;;;;;;;;;;;20.33;34.55;95212.06;10473974;28;1982;-58
2023/03/18 00:07:46;;;;;;;;;;;;;;;20.33;34.40;95217.34;10480691;28;2191;-58
2023/03/18 00:12:47;;;;;;;;;;;;;;;20.31;34.58;95219.47;10473715;28;2329;-58
2023/03/18 00:17:47;;;;;;;;;;;;;;;20.30;34.42;95228.41;10464034;28;2265;-58
2023/03/18 00:22:47;;;;;;;;;;;;;;;20.29;34.34;95221.59;10458354;28;1961;-58
2023/03/18 00:27:48;;;;;;;;;;;;;;;20.27;34.36;95229.00;10478518;28;2149;-57
2023/03/18 00:32:49;;;;;;;;;;;;;;;20.27;34.29;95235.06;10457605;28;2227;-58
2023/03/18 00:37:49;;;;;;;;;;;;;;;20.25;34.44;95237.19;10480361;28;1951;-56
2023/03/18 00:42:56;;;;;;;;;;;;;;;20.24;34.46;95250.59;10464031;28;2176;-59
2023/03/18 00:47:56;;;;;;;;;;;;;;;20.23;34.51;95249.06;10471258;28;2162;-58
2023/03/18 00:52:58;;;;;;;;;;;;;;;20.23;34.41;95249.06;10476814;28;1984;-58
2023/03/18 00:57:59;;;;;;;;;;;;;;;20.20;34.42;95250.41;10472638;28;2155;-57
2023/03/18 01:03:09;;;;;;;;;;;;;;;20.18;34.36;95247.25;10474698;28;1982;-58
2023/03/18 01:08:11;;;;;;;;;;;;;;;20.18;34.29;95249.06;10465191;28;2199;-58
2023/03/18 01:13:11;;;;;;;;;;;;;;;20.17;34.32;95244.91;10476471;28;2186;-58
2023/03/18 01:18:12;;;;;;;;;;;;;;;20.15;34.28;95247.78;10477376;28;2121;-59
2023/03/18 01:23:13;;;;;;;;;;;;;;;20.14;34.36;95243.59;10481933;28;2122;-58
2023/03/18 01:28:14;;;;;;;;;;;;;;;20.14;34.28;95242.81;10489758;28;2193;-58
2023/03/18 01:33:16;;;;;;;;;;;;;;;20.11;34.26;95233.63;10470847;28;2166;-57
2023/03/18 01:38:17;;;;;;;;;;;;;;;20.11;34.23;95236.25;10475504;28;2202;-58
2023/03/18 01:43:37;;;;;;;;;;;;;;;20.10;34.18;95234.72;10471284;28;2127;-57
2023/03/18 01:48:38;;;;;;;;;;;;;;;20.09;34.27;95240.25;10476077;28;2115;-56
2023/03/18 01:53:41;;;;;;;;;;;;;;;20.07;34.27;95250.28;10478028;28;1899;-58
2023/03/18 01:58:44;;;;;;;;;;;;;;;20.06;34.39;95251.34;10479222;28;2191;-64
2023/03/18 02:03:44;;;;;;;;;;;;;;;20.06;34.49;95253.97;10486944;28;2149;-58
2023/03/18 02:08:45;;;;;;;;;;;;;;;20.04;34.21;95256.88;10459050;28;2257;-58
2023/03/18 02:13:45;;;;;;;;;;;;;;;20.04;34.37;95261.34;10456019;28;2216;-58
2023/03/18 02:18:47;;;;;;;;;;;;;;;20.01;34.42;95267.97;10481381;28;2171;-58
2023/03/18 02:23:50;;;;;;;;;;;;;;;20.02;34.25;95260.84;10473317;28;2124;-58
2023/03/18 02:28:51;;;;;;;;;;;;;;;19.99;34.38;95264.81;10480363;28;2150;-58
2023/03/18 02:33:51;;;;;;;;;;;;;;;19.99;34.44;95272.72;10485325;28;2145;-58
2023/03/18 02:38:53;;;;;;;;;;;;;;;19.98;34.41;95273.00;10486185;28;2233;-58
2023/03/18 02:43:53;;;;;;;;;;;;;;;19.96;34.18;95272.50;10473238;28;1991;-58
2023/03/18 02:48:54;;;;;;;;;;;;;;;19.95;34.30;95273.56;10456948;28;2202;-57
2023/03/18 02:53:56;;;;;;;;;;;;;;;19.94;34.16;95269.38;10476726;28;2259;-57
2023/03/18 02:58:56;;;;;;;;;;;;;;;19.92;34.35;95282.81;10479698;28;2244;-58
2023/03/18 03:03:56;;;;;;;;;;;;;;;19.92;34.08;95289.91;10476018;28;2254;-58
2023/03/18 03:09:07;;;;;;;;;;;;;;;19.91;34.23;95290.97;10480593;28;2183;-58
2023/03/18 03:14:08;;;;;;;;;;;;;;;19.89;34.25;95300.97;10478715;28;2225;-58
2023/03/18 03:19:10;;;;;;;;;;;;;;;19.87;33.98;95298.63;10473192;28;2047;-58
2023/03/18 03:24:11;;;;;;;;;;;;;;;19.87;34.28;95303.09;10474121;28;2194;-58
2023/03/18 03:29:11;;;;;;;;;;;;;;;19.86;34.22;95315.50;10473944;28;2155;-57
2023/03/18 03:34:12;;;;;;;;;;;;;;;19.84;34.09;95320.25;10479818;28;2175;-58
2023/03/18 03:39:12;;;;;;;;;;;;;;;19.84;34.08;95320.25;10456614;28;2255;-58
2023/03/18 03:44:12;;;;;;;;;;;;;;;19.82;33.98;95322.38;10464904;28;2213;-58
2023/03/18 03:49:13;;;;;;;;;;;;;;;19.81;34.17;95320.81;10472709;28;2039;-58
2023/03/18 03:54:15;;;;;;;;;;;;;;;19.79;34.09;95322.94;10457508;28;2090;-58
2023/03/18 03:59:15;;;;;;;;;;;;;;;19.78;33.95;95329.25;10496741;28;2349;-58
2023/03/18 04:04:16;;;;;;;;;;;;;;;19.77;34.05;95329.50;10474385;28;2232;-58
2023/03/18 04:09:17;;;;;;;;;;;;;;;19.76;34.06;95333.22;10475048;28;2209;-57
2023/03/18 04:14:17;;;;;;;;;;;;;;;19.74;33.79;95335.34;10467714;28;1967;-58
2023/03/18 04:19:18;;;;;;;;;;;;;;;19.75;34.02;95339.53;10475124;28;2155;-58
2023/03/18 04:24:19;;;;;;;;;;;;;;;19.73;33.77;95345.06;10474842;28;2196;-58
2023/03/18 04:29:21;;;;;;;;;;;;;;;19.73;33.87;95346.91;10469870;28;2179;-58
2023/03/18 04:34:21;;;;;;;;;;;;;;;19.71;33.90;95339.31;10474175;28;2130;-57
2023/03/18 04:39:32;;;;;;;;;;;;;;;19.72;33.94;95345.34;10462513;28;2228;-58
2023/03/18 04:44:33;;;;;;;;;;;;;;;19.70;33.93;95350.13;10477366;28;1972;-58
2023/03/18 04:49:34;;;;;;;;;;;;;;;19.69;33.74;95348.53;10474885;28;2177;-58
2023/03/18 04:54:36;;;;;;;;;;;;;;;19.68;33.63;95352.22;10475707;28;2207;-58
2023/03/18 04:59:36;;;;;;;;;;;;;;;19.67;33.72;95348.03;10471235;28;2129;-58
2023/03/18 05:04:36;;;;;;;;;;;;;;;19.65;33.81;95343.06;10468738;28;2128;-58
2023/03/18 05:09:37;;;;;;;;;;;;;;;19.68;33.82;95341.72;10491488;28;2220;-57
2023/03/18 05:14:37;;;;;;;;;;;;;;;19.68;33.67;95346.97;10456728;28;2271;-58
2023/03/18 05:19:37;;;;;;;;;;;;;;;19.72;33.61;95340.09;10468951;28;2170;-58
2023/03/18 05:24:38;;;;;;;;;;;;;;;19.73;33.35;95339.81;10479081;28;2222;-58
2023/03/18 05:29:41;;;;;;;;;;;;;;;19.79;33.51;95353.69;10478615;28;1941;-58
2023/03/18 05:34:41;;;;;;;;;;;;;;;19.82;33.24;95346.06;10483238;28;2061;-58
2023/03/18 05:39:43;;;;;;;;;;;;;;;19.88;33.22;95350.19;10480168;28;2198;-58
2023/03/18 05:44:44;;;;;;;;;;;;;;;19.93;33.17;95351.97;10483058;28;2009;-58
2023/03/18 05:49:45;;;;;;;;;;;;;;;19.99;33.37;95359.53;10479515;28;2132;-57
2023/03/18 05:54:45;;;;;;;;;;;;;;;20.06;33.24;95359.22;10476372;28;2198;-58
2023/03/18 05:59:46;;;;;;;;;;;;;;;20.09;33.16;95369.19;10463643;28;2222;-57
2023/03/18 06:04:47;;;;;;;;;;;;;;;20.16;33.07;95374.88;10481420;28;2171;-57
2023/03/18 06:09:47;;;;;;;;;;;;;;;20.20;32.93;95368.03;10477402;28;2139;-58
2023/03/18 06:14:47;;;;;;;;;;;;;;;20.24;32.94;95371.66;10461890;28;2260;-58
2023/03/18 06:19:47;;;;;;;;;;;;;;;20.27;32.85;95366.66;10475876;28;2048;-58
2023/03/18 06:24:48;;;;;;;;;;;;;;;20.32;32.84;95367.66;10487836;28;2180;-57
2023/03/18 06:29:48;;;;;;;;;;;;;;;20.37;32.73;95368.38;10479994;28;2378;-57
2023/03/18 06:34:49;;;;;;;;;;;;;;;20.40;32.69;95375.72;10486465;28;2189;-59
2023/03/18 06:39:49;;;;;;;;;;;;;;;20.42;33.11;95373.59;10483887;28;2183;-58
2023/03/18 06:44:50;;;;;;;;;;;;;;;20.47;33.32;95373.53;10458393;28;2534;-59
2023/03/18 06:49:51;;;;;;;;;;;;;;;20.49;33.54;95378.50;10458811;28;2124;-58
2023/03/18 06:54:52;;;;;;;;;;;;;;;20.52;33.57;95372.69;10482811;28;2217;-57
2023/03/18 06:59:54;;;;;;;;;;;;;;;20.55;33.70;95374.72;10477136;28;2208;-54
2023/03/18 07:05:03;;;;;;;;;;;;;;;20.59;33.88;95376.53;10460580;28;2319;-58
2023/03/18 07:10:04;;;;;;;;;;;;;;;20.60;34.02;95386.00;10462381;28;2152;-57
2023/03/18 07:15:05;;;;;;;;;;;;;;;20.61;33.91;95382.28;10477790;28;2179;-55
2023/03/18 07:20:06;;;;;;;;;;;;;;;20.61;34.06;95376.28;10478966;28;2105;-56
2023/03/18 07:25:07;;;;;;;;;;;;;;;20.62;34.05;95386.50;10476915;28;2427;-58
2023/03/18 07:30:08;;;;;;;;;;;;;;;20.63;34.04;95393.34;10489860;28;2205;-58
2023/03/18 07:35:10;;;;;;;;;;;;;;;20.63;34.14;95398.59;10459728;28;2159;-58
2023/03/18 07:40:11;;;;;;;;;;;;;;;20.63;34.11;95390.69;10454573;28;2069;-59
2023/03/18 07:45:12;;;;;;;;;;;;;;;20.60;33.98;95395.75;10478433;28;2175;-59
2023/03/18 07:50:12;;;;;;;;;;;;;;;20.60;33.88;95396.53;10479491;28;2271;-58
2023/03/18 07:55:23;;;;;;;;;;;;;;;20.58;34.15;95408.41;10476946;28;2193;-58
2023/03/18 08:00:26;;;;;;;;;;;;;;;20.55;34.45;95399.22;10476094;28;2010;-59
2023/03/18 08:05:27;;;;;;;;;;;;;;;20.52;34.17;95405.06;10473431;28;1957;-58
2023/03/18 08:10:28;;;;;;;;;;;;;;;20.50;34.35;95401.94;10476701;28;1990;-58
2023/03/18 08:15:30;;;;;;;;;;;;;;;20.48;34.44;95403.28;10483383;28;1969;-58
2023/03/18 08:20:30;;;;;;;;;;;;;;;20.46;34.57;95403.56;10495737;28;2069;-59
2023/03/18 08:25:31;;;;;;;;;;;;;;;20.41;34.75;95411.50;10476187;28;1971;-58
2023/03/18 08:30:32;;;;;;;;;;;;;;;20.42;34.86;95412.28;10467351;28;2028;-58
2023/03/18 08:35:33;;;;;;;;;;;;;;;20.39;34.75;95410.22;10469057;28;1978;-58
2023/03/18 08:40:34;;;;;;;;;;;;;;;20.36;35.09;95411.53;10459003;28;2077;-59
2023/03/18 08:45:35;;;;;;;;;;;;;;;20.32;35.00;95399.25;10466705;28;2073;-58
2023/03/18 08:50:35;;;;;;;;;;;;;;;20.31;34.98;95413.47;10468034;28;2006;-58
2023/03/18 08:55:36;;;;;;;;;;;;;;;20.28;34.93;95406.91;10476124;28;1949;-58
2023/03/18 09:00:37;;;;;;;;;;;;;;;20.26;34.95;95401.91;10467727;28;2028;-56
2023/03/18 09:05:38;;;;;;;;;;;;;;;20.26;34.83;95409.03;10470524;28;2048;-58
2023/03/18 09:10:40;;;;;;;;;;;;;;;20.25;35.05;95404.84;10476295;28;2313;-58
2023/03/18 09:15:41;;;;;;;;;;;;;;;20.23;34.89;95412.22;10469417;28;1996;-58
2023/03/18 09:20:42;;;;;;;;;;;;;;;20.21;34.82;95399.34;10478605;28;1983;-58
2023/03/18 09:25:43;;;;;;;;;;;;;;;20.20;34.77;95396.97;10473721;28;2032;-58
2023/03/18 09:30:44;;;;;;;;;;;;;;;20.18;34.90;95402.50;10459765;28;2060;-58
2023/03/18 09:35:45;;;;;;;;;;;;;;;20.17;34.86;95392.25;10468454;28;2074;-58
2023/03/18 09:41:01;;;;;;;;;;;;;;;20.16;34.90;95403.84;10471493;28;2267;-59
2023/03/18 09:46:24;;;;;;;;;;;;;;;20.14;34.72;95400.69;10470083;28;2034;-58
2023/03/18 09:51:32;;;;;;;;;;;;;;;20.15;34.81;95399.66;10442049;28;2090;-58
2023/03/18 09:56:33;;;;;;;;;;;;;;;20.12;34.71;95398.34;10460573;28;1959;-58
2023/03/18 10:01:34;;;;;;;;;;;;;;;20.14;34.81;95398.06;10456194;28;2123;-61
2023/03/18 10:06:35;;;;;;;;;;;;;;;20.14;34.75;95398.06;10469179;28;2105;-61
2023/03/18 10:11:38;;;;;;;;;;;;;;;20.13;35.01;95409.66;10477683;28;2005;-61
2023/03/18 10:16:59;;;;;;;;;;;;;;;20.13;35.07;95404.41;10476007;28;2037;-61
2023/03/18 10:22:00;;;;;;;;;;;;;;;20.14;34.90;95403.34;10472529;28;2047;-61
2023/03/18 10:27:17;;;;;;;;;;;;;;;20.16;35.13;95407.25;10470074;28;1978;-60
2023/03/18 10:32:21;;;;;;;;;;;;;;;20.15;35.42;95404.91;10479477;28;1960;-59
2023/03/18 10:37:41;;;;;;;;;;;;;;;20.14;35.44;95400.69;10461650;28;1996;-60
2023/03/18 10:42:43;;;;;;;;;;;;;;;20.15;35.51;95397.03;10482191;28;1956;-60
2023/03/18 10:47:45;;;;;;;;;;;;;;;20.15;35.42;95397.03;10474791;28;1987;-60
2023/03/18 10:52:51;;;;;;;;;;;;;;;20.12;35.27;95384.41;10466986;28;1947;-60
2023/03/18 10:57:52;;;;;;;;;;;;;;;20.13;35.39;95378.09;10482770;28;1972;-61
2023/03/18 11:02:53;;;;;;;;;;;;;;;20.12;35.29;95369.41;10484338;28;1960;-61
2023/03/18 11:07:58;;;;;;;;;;;;;;;20.12;35.47;95366.78;10482518;28;2001;-60
2023/03/18 11:13:01;;;;;;;;;;;;;;;20.13;35.28;95364.94;10483872;28;2092;-60
2023/03/18 11:18:02;;;;;;;;;;;;;;;20.11;35.44;95354.66;10475313;28;1998;-60
2023/03/18 11:23:11;;;;;;;;;;;;;;;20.13;35.29;95349.91;10482627;28;1944;-60
2023/03/18 11:28:22;;;;;;;;;;;;;;;20.13;35.40;95338.63;10483567;28;2222;-60
2023/03/18 11:33:22;;;;;;;;;;;;;;;20.13;35.42;95338.63;10476252;28;2025;-60
2023/03/18 11:38:28;;;;;;;;;;;;;;;20.13;35.46;95331.50;10479673;28;2115;-60
2023/03/18 11:43:29;;;;;;;;;;;;;;;20.13;35.39;95325.47;10476539;28;2008;-60
2023/03/18 11:48:35;;;;;;;;;;;;;;;20.13;35.32;95323.59;10485714;28;1971;-60
2023/03/18 11:54:04;;;;;;;;;;;;;;;20.11;35.47;95309.94;10441088;28;1948;-61
2023/03/18 11:59:12;;;;;;;;;;;;;;;20.11;35.27;95302.03;10471410;28;2005;-60
2023/03/18 12:04:13;;;;;;;;;;;;;;;20.13;35.57;95296.53;10473234;28;2012;-60
2023/03/18 12:09:14;;;;;;;;;;;;;;;20.11;35.33;95288.13;10479173;28;2010;-60
2023/03/18 12:14:20;;;;;;;;;;;;;;;20.13;35.54;95284.13;10479327;28;2011;-60
2023/03/18 12:19:40;;;;;;;;;;;;;;;20.15;35.44;95283.88;10475380;28;2076;-60
2023/03/18 12:24:46;;;;;;;;;;;;;;;20.14;35.50;95290.97;10481875;28;2003;-60
2023/03/18 12:29:53;;;;;;;;;;;;;;;20.14;35.51;95293.59;10474280;28;1905;-60
2023/03/18 12:35:13;;;;;;;;;;;;;;;20.14;35.67;95287.56;10483673;28;2067;-60
2023/03/18 12:40:32;;;;;;;;;;;;;;;20.15;35.41;95289.13;10475739;28;2098;-59
2023/03/18 12:45:36;;;;;;;;;;;;;;;20.16;35.64;95285.41;10476457;28;1971;-60
2023/03/18 12:50:37;;;;;;;;;;;;;;;20.17;35.76;95282.50;10473328;28;1974;-59
2023/03/18 12:55:38;;;;;;;;;;;;;;;20.20;35.70;95281.19;10475472;28;2010;-60
2023/03/18 13:00:39;;;;;;;;;;;;;;;20.17;35.74;95284.38;10472072;28;2058;-60
2023/03/18 13:05:42;;;;;;;;;;;;;;;20.13;35.60;95278.88;10479433;28;1911;-60
2023/03/18 13:10:42;;;;;;;;;;;;;;;20.14;35.04;95283.06;10484468;28;1954;-60
2023/03/18 13:15:51;;;;;;;;;;;;;;;20.16;34.94;95290.69;10490354;28;2275;-61
2023/03/18 13:21:01;;;;;;;;;;;;;;;20.10;34.23;95281.28;10472545;28;2284;-59
2023/03/18 13:26:17;;;;;;;;;;;;;;;20.00;33.28;95276.16;10475122;28;1945;-59
2023/03/18 13:31:36;;;;;;;;;;;;;;;19.96;32.37;95270.66;10473523;28;2003;-59
2023/03/18 13:36:45;;;;;;;;;;;;;;;20.00;29.09;95260.34;10472866;28;1991;-58
2023/03/18 13:41:52;;;;;;;;;;;;;;;19.93;30.52;95250.16;10471363;28;1958;-59
2023/03/18 13:47:03;;;;;;;;;;;;;;;19.88;30.89;95244.97;10474835;28;2042;-58
2023/03/18 13:52:24;;;;;;;;;;;;;;;19.87;31.19;95246.03;10476394;28;2039;-59
2023/03/18 13:57:42;;;;;;;;;;;;;;;19.83;30.20;95244.25;10465245;28;2006;-58
2023/03/18 14:02:44;;;;;;;;;;;;;;;19.85;31.06;95234.22;10478379;28;1955;-59
2023/03/18 14:07:46;;;;;;;;;;;;;;;19.87;31.26;95229.47;10485105;28;2250;-60
2023/03/18 14:12:47;;;;;;;;;;;;;;;19.86;30.54;95225.28;10495418;28;1966;-60
2023/03/18 14:17:57;;;;;;;;;;;;;;;19.81;29.87;95220.84;10480976;28;1931;-60
2023/03/18 14:23:17;;;;;;;;;;;;;;;19.78;30.34;95216.19;10475324;28;2033;-60
2023/03/18 14:28:19;;;;;;;;;;;;;;;19.79;30.36;95211.69;10478125;28;2218;-58
2023/03/18 14:33:19;;;;;;;;;;;;;;;19.79;29.83;95211.69;10500017;28;1976;-60
2023/03/18 14:38:48;;;;;;;;;;;;;;;19.76;30.30;95207.00;10479084;28;1959;-60
2023/03/18 14:43:53;;;;;;;;;;;;;;;19.75;30.03;95211.47;10497247;28;1951;-59
2023/03/18 14:48:54;;;;;;;;;;;;;;;19.77;30.04;95204.06;10484099;28;1947;-58
2023/03/18 14:53:57;;;;;;;;;;;;;;;19.78;30.23;95189.09;10483553;28;1952;-58
2023/03/18 14:58:57;;;;;;;;;;;;;;;19.80;30.57;95194.84;10467493;28;1986;-58
2023/03/18 15:03:57;;;;;;;;;;;;;;;19.84;30.58;95195.84;10480820;28;2008;-58
2023/03/18 15:09:00;;;;;;;;;;;;;;;19.88;30.80;95191.59;10466332;28;1921;-58
2023/03/18 15:14:30;;;;;;;;;;;;;;;19.93;30.37;95186.25;10477380;28;1995;-60
2023/03/18 15:19:32;;;;;;;;;;;;;;;19.93;30.09;95191.50;10481322;28;2035;-60
2023/03/18 15:24:33;;;;;;;;;;;;;;;19.94;29.74;95183.34;10467092;28;2007;-60
2023/03/18 15:29:37;;;;;;;;;;;;;;;19.93;29.56;95188.88;10481421;28;1925;-61
2023/03/18 15:34:37;;;;;;;;;;;;;;;20.00;30.07;95187.50;10464004;28;2039;-62
2023/03/18 15:39:39;;;;;;;;;;;;;;;20.05;30.13;95192.66;10465681;28;2102;-62
2023/03/18 15:44:41;;;;;;;;;;;;;;;20.09;29.94;95195.53;10481741;28;2179;-60
2023/03/18 15:49:54;;;;;;;;;;;;;;;20.14;30.41;95195.44;10483870;28;1983;-59
2023/03/18 15:54:54;;;;;;;;;;;;;;;20.17;30.32;95192.25;10475098;28;2126;-58
2023/03/18 15:59:54;;;;;;;;;;;;;;;20.21;30.82;95194.09;10481859;28;2115;-59
2023/03/18 16:05:06;;;;;;;;;;;;;;;20.27;31.09;95195.56;10485961;28;1970;-59
2023/03/18 16:10:08;;;;;;;;;;;;;;;20.30;31.56;95196.84;10484867;28;1889;-59
2023/03/18 16:15:21;;;;;;;;;;;;;;;20.34;31.91;95195.19;10478705;28;2003;-60
2023/03/18 16:20:23;;;;;;;;;;;;;;;20.41;33.18;95193.00;10482974;28;2246;-60
2023/03/18 16:25:24;;;;;;;;;;;;;;;20.49;33.64;95199.47;10463990;28;2094;-59
2023/03/18 16:30:27;;;;;;;;;;;;;;;20.54;34.29;95210.72;10462865;28;2042;-59
2023/03/18 16:35:31;;;;;;;;;;;;;;;20.59;34.91;95205.38;10484760;28;1872;-59
2023/03/18 16:40:35;;;;;;;;;;;;;;;20.65;35.61;95203.47;10468765;28;1897;-59
2023/03/18 16:45:35;;;;;;;;;;;;;;;20.69;35.84;95215.75;10478240;28;2227;-59
2023/03/18 16:50:36;;;;;;;;;;;;;;;20.73;35.89;95222.00;10487862;28;1819;-60
2023/03/18 16:55:36;;;;;;;;;;;;;;;20.76;37.09;95229.34;10479809;28;2088;-59
2023/03/18 17:00:45;;;;;;;;;;;;;;;20.81;37.17;95233.75;10482877;28;1921;-58
2023/03/18 17:05:49;;;;;;;;;;;;;;;20.80;36.92;95242.72;10483085;28;2238;-60
2023/03/18 17:10:51;;;;;;;;;;;;;;;20.81;37.31;95247.69;10481440;28;1871;-60
2023/03/18 17:16:01;;;;;;;;;;;;;;;20.80;37.36;95246.13;10476671;28;1850;-59
2023/03/18 17:21:04;;;;;;;;;;;;;;;20.77;37.27;95249.34;10478124;28;1911;-59
2023/03/18 17:26:15;;;;;;;;;;;;;;;20.80;37.99;95255.88;10478452;28;1928;-60
2023/03/18 17:31:16;;;;;;;;;;;;;;;20.74;37.98;95260.47;10472769;28;1881;-60
2023/03/18 17:36:17;;;;;;;;;;;;;;;20.73;37.94;95256.25;10473941;28;2018;-59
2023/03/18 17:41:18;;;;;;;;;;;;;;;20.74;37.75;95273.63;10470254;28;1896;-59
2023/03/18 17:46:21;;;;;;;;;;;;;;;20.75;37.67;95258.59;10470186;28;1992;-59
2023/03/18 17:51:23;;;;;;;;;;;;;;;20.72;37.93;95249.41;10475416;28;1930;-59
2023/03/18 17:56:27;;;;;;;;;;;;;;;20.69;38.05;95244.72;10480293;28;1921;-59
2023/03/18 18:01:28;;;;;;;;;;;;;;;20.69;37.92;95249.97;10480629;28;1993;-59
2023/03/18 18:06:29;;;;;;;;;;;;;;;20.67;38.12;95252.13;10477770;28;1967;-60
2023/03/18 18:11:30;;;;;;;;;;;;;;;20.63;38.14;95253.75;10478415;28;1995;-60
2023/03/18 18:16:30;;;;;;;;;;;;;;;20.62;38.45;95254.06;10475318;28;1960;-59
2023/03/18 18:21:30;;;;;;;;;;;;;;;20.59;38.64;95259.88;10476999;28;1986;-59
2023/03/18 18:26:31;;;;;;;;;;;;;;;20.56;38.74;95253.34;10473105;28;1918;-60
2023/03/18 18:31:34;;;;;;;;;;;;;;;20.54;38.79;95254.69;10466066;28;1834;-59
2023/03/18 18:36:35;;;;;;;;;;;;;;;20.52;38.29;95249.72;10466150;28;1849;-60
2023/03/18 18:41:36;;;;;;;;;;;;;;;20.53;38.71;95261.00;10467405;28;2210;-61
2023/03/18 18:46:39;;;;;;;;;;;;;;;20.47;39.04;95255.03;10482489;28;1910;-62
2023/03/18 18:51:40;;;;;;;;;;;;;;;20.49;38.81;95257.38;10489328;28;1983;-61
2023/03/18 18:56:42;;;;;;;;;;;;;;;20.47;39.26;95249.78;10489864;28;1877;-60
2023/03/18 19:01:43;;;;;;;;;;;;;;;20.45;39.33;95246.66;10487023;28;1845;-60
2023/03/18 19:06:44;;;;;;;;;;;;;;;20.45;39.45;95244.00;10466725;28;2008;-61
2023/03/18 19:11:45;;;;;;;;;;;;;;;20.48;39.98;95255.84;10478521;28;2254;-62
2023/03/18 19:16:47;;;;;;;;;;;;;;;20.46;40.04;95255.34;10476834;28;1961;-61
2023/03/18 19:21:49;;;;;;;;;;;;;;;20.46;40.49;95258.75;10479960;28;2133;-60
2023/03/18 19:26:50;;;;;;;;;;;;;;;20.47;40.22;95260.31;10477311;28;2221;-59
2023/03/18 19:31:53;;;;;;;;;;;;;;;20.47;40.68;95257.69;10464863;28;2107;-60
2023/03/18 19:36:53;;;;;;;;;;;;;;;20.45;40.74;95265.06;10482005;28;2108;-60
2023/03/18 19:41:54;;;;;;;;;;;;;;;20.48;40.99;95274.25;10465237;28;2143;-60
2023/03/18 19:46:55;;;;;;;;;;;;;;;20.46;41.55;95285.09;10476488;28;1960;-59
2023/03/18 19:51:55;;;;;;;;;;;;;;;20.46;41.54;95279.81;10468980;28;1917;-60
2023/03/18 19:56:59;;;;;;;;;;;;;;;20.46;41.16;95274.56;10484135;28;1954;-60
2023/03/18 20:01:59;;;;;;;;;;;;;;;20.47;41.76;95272.69;10487672;28;1901;-60
2023/03/18 20:07:00;;;;;;;;;;;;;;;20.47;41.58;95270.84;10482977;28;1906;-60
2023/03/18 20:12:04;;;;;;;;;;;;;;;20.50;42.68;95286.09;10478774;28;1989;-61
2023/03/18 20:17:23;;;;;;;;;;;;;;;20.50;41.65;95278.19;10483132;28;1889;-60
2023/03/18 20:22:25;;;;;;;;;;;;;;;20.49;42.05;95281.06;10486495;28;1904;-60
2023/03/18 20:27:26;;;;;;;;;;;;;;;20.51;41.76;95277.09;10483858;28;1898;-58
2023/03/18 20:32:27;;;;;;;;;;;;;;;20.52;42.17;95283.94;10482915;28;1894;-61
2023/03/18 20:37:28;;;;;;;;;;;;;;;20.53;41.94;95284.72;10487997;28;1948;-59
2023/03/18 20:42:29;;;;;;;;;;;;;;;20.55;42.14;95293.09;10462866;28;2065;-59
2023/03/18 20:47:30;;;;;;;;;;;;;;;20.55;42.04;95285.22;10457675;28;1897;-59
2023/03/18 20:52:31;;;;;;;;;;;;;;;20.55;42.08;95288.63;10490035;28;1895;-59
2023/03/18 20:57:32;;;;;;;;;;;;;;;20.56;41.94;95286.78;10494093;28;2039;-58
2023/03/18 21:02:32;;;;;;;;;;;;;;;20.56;41.94;95279.69;10484131;28;2028;-59
2023/03/18 21:07:33;;;;;;;;;;;;;;;20.56;42.58;95281.53;10498638;28;1965;-58
2023/03/18 21:12:34;;;;;;;;;;;;;;;20.55;42.27;95286.00;10482513;28;2136;-58
2023/03/18 21:17:35;;;;;;;;;;;;;;;20.54;42.26;95284.44;10467667;28;1915;-59
2023/03/18 21:22:37;;;;;;;;;;;;;;;20.53;42.23;95282.06;10477363;28;1910;-60
2023/03/18 21:27:38;;;;;;;;;;;;;;;20.52;42.46;95286.59;10459646;28;2066;-59
2023/03/18 21:32:38;;;;;;;;;;;;;;;20.52;42.10;95286.59;10465528;28;1973;-59
2023/03/18 21:37:39;;;;;;;;;;;;;;;20.52;43.26;95283.94;10476228;28;2039;-60
2023/03/18 21:42:41;;;;;;;;;;;;;;;20.51;43.06;95287.63;10470181;28;2028;-60
2023/03/18 21:47:42;;;;;;;;;;;;;;;20.49;43.07;95276.59;10472036;28;2094;-59
2023/03/18 21:52:42;;;;;;;;;;;;;;;20.48;42.56;95282.94;10482314;28;2110;-62
2023/03/18 21:57:43;;;;;;;;;;;;;;;20.43;42.42;95277.75;10450667;28;2144;-60
2023/03/18 22:02:44;;;;;;;;;;;;;;;20.43;42.88;95277.75;10473620;28;2097;-60
2023/03/18 22:07:44;;;;;;;;;;;;;;;20.40;42.77;95270.44;10476554;28;2032;-60
2023/03/18 22:12:45;;;;;;;;;;;;;;;20.37;42.83;95278.88;10472247;28;2044;-61
2023/03/18 22:17:45;;;;;;;;;;;;;;;20.35;43.04;95270.47;10471889;28;2023;-61
2023/03/18 22:22:48;;;;;;;;;;;;;;;20.31;42.95;95264.22;10467537;28;1977;-61
2023/03/18 22:27:50;;;;;;;;;;;;;;;20.29;43.06;95268.97;10476227;28;1995;-62
2023/03/18 22:32:51;;;;;;;;;;;;;;;20.28;43.07;95272.66;10464414;28;2068;-61
2023/03/18 22:37:52;;;;;;;;;;;;;;;20.24;42.91;95271.66;10481917;28;2030;-60
2023/03/18 22:42:53;;;;;;;;;;;;;;;20.22;42.93;95264.06;10485622;28;1976;-61
2023/03/18 22:47:55;;;;;;;;;;;;;;;20.20;42.83;95271.44;10483019;28;2029;-61
2023/03/18 22:53:00;;;;;;;;;;;;;;;20.20;42.87;95278.56;10465857;28;1959;-61
2023/03/18 22:58:00;;;;;;;;;;;;;;;20.17;42.43;95276.47;10458542;28;2076;-61
2023/03/18 23:03:02;;;;;;;;;;;;;;;20.15;42.68;95273.34;10478700;28;1974;-61
2023/03/18 23:08:02;;;;;;;;;;;;;;;20.13;42.41;95264.94;10465796;28;1955;-61
2023/03/18 23:13:08;;;;;;;;;;;;;;;20.12;42.55;95277.31;10470118;28;2312;-61
2023/03/18 23:18:13;;;;;;;;;;;;;;;20.09;42.77;95279.72;10462682;28;2002;-60
2023/03/18 23:23:13;;;;;;;;;;;;;;;20.09;42.65;95274.47;10478000;28;1976;-60
2023/03/18 23:28:24;;;;;;;;;;;;;;;20.08;42.58;95272.88;10477409;28;1968;-60
2023/03/18 23:33:24;;;;;;;;;;;;;;;20.06;42.57;95277.66;10472392;28;1999;-60
2023/03/18 23:38:25;;;;;;;;;;;;;;;20.06;42.60;95285.53;10481117;28;2099;-60
2023/03/18 23:43:26;;;;;;;;;;;;;;;20.04;42.51;95285.03;10476211;28;2100;-60
2023/03/18 23:48:26;;;;;;;;;;;;;;;20.02;42.62;95292.44;10479997;28;2066;-60
2023/03/18 23:53:27;;;;;;;;;;;;;;;20.02;42.53;95305.59;10473969;28;1954;-60
2023/03/18 23:58:27;;;;;;;;;;;;;;;19.99;42.43;95295.63;10472457;28;2224;-60
